sensor_id;sensor_type;location;lat;lon;timestamp;temperature;humidity
6429;DHT22;3247;48.946;10.220;2023-02-28T00:02:00;-3.00;99.90
6429;DHT22;3247;48.946;10.220;2023-02-28T00:04:25;-2.10;99.90
6429;DHT22;3247;48.946;10.220;2023-02-28T00:06:51;-2.60;99.90
6429;DHT22;3247;48.946;10.220;2023-02-28T00:09:16;-3.10;99.90
6429;DHT22;3247;48.946;10.220;2023-02-28T00:11:42;-3.10;99.90
6429;DHT22;3247;48.946;10.220;2023-02-28T00:14:07;-3.10;99.90
6429;DHT22;3247;48.946;10.220;2023-02-28T00:16:34;-3.10;99.90
6429;DHT22;3247;48.946;10.220;2023-02-28T00:19:02;-3.10;99.90
6429;DHT22;3247;48.946;10.220;2023-02-28T00:21:28;-3.10;99.90
6429;DHT22;3247;48.946;10.220;2023-02-28T00:24:00;-3.10;99.90
6429;DHT22;3247;48.946;10.220;2023-02-28T00:26:26;-2.80;99.90
6429;DHT22;3247;48.946;10.220;2023-02-28T00:28:51;-2.00;99.90
6429;DHT22;3247;48.946;10.220;2023-02-28T00:31:17;-3.00;99.90
6429;DHT22;3247;48.946;10.220;2023-02-28T00:33:44;-3.00;99.90
6429;DHT22;3247;48.946;10.220;2023-02-28T00:36:11;-3.00;99.90
6429;DHT22;3247;48.946;10.220;2023-02-28T00:38:40;-3.70;99.90
6429;DHT22;3247;48.946;10.220;2023-02-28T00:41:06;-3.00;99.90
6429;DHT22;3247;48.946;10.220;2023-02-28T00:43:33;-3.00;99.90
6429;DHT22;3247;48.946;10.220;2023-02-28T00:45:59;-3.00;99.90
6429;DHT22;3247;48.946;10.220;2023-02-28T00:48:24;-3.00;99.90
6429;DHT22;3247;48.946;10.220;2023-02-28T00:50:50;-3.00;99.90
6429;DHT22;3247;48.946;10.220;2023-02-28T00:53:16;-2.20;99.90
6429;DHT22;3247;48.946;10.220;2023-02-28T00:55:42;-3.10;99.90
6429;DHT22;3247;48.946;10.220;2023-02-28T00:58:12;-3.10;99.90
6429;DHT22;3247;48.946;10.220;2023-02-28T01:00:37;-3.10;99.90
6429;DHT22;3247;48.946;10.220;2023-02-28T01:03:03;-4.20;99.90
6429;DHT22;3247;48.946;10.220;2023-02-28T01:05:33;-3.20;99.90
6429;DHT22;3247;48.946;10.220;2023-02-28T01:07:59;-3.20;99.90
6429;DHT22;3247;48.946;10.220;2023-02-28T01:10:24;-3.20;99.90
6429;DHT22;3247;48.946;10.220;2023-02-28T01:12:58;-3.20;99.90
6429;DHT22;3247;48.946;10.220;2023-02-28T01:15:24;-3.20;99.90
6429;DHT22;3247;48.946;10.220;2023-02-28T01:17:50;-3.20;99.90
6429;DHT22;3247;48.946;10.220;2023-02-28T01:20:17;-2.10;99.90
6429;DHT22;3247;48.946;10.220;2023-02-28T01:25:46;-3.30;99.90
6429;DHT22;3247;48.946;10.220;2023-02-28T01:28:12;-3.30;99.90
6429;DHT22;3247;48.946;10.220;2023-02-28T01:30:37;-3.30;99.90
6429;DHT22;3247;48.946;10.220;2023-02-28T01:33:03;-2.40;99.90
6429;DHT22;3247;48.946;10.220;2023-02-28T01:35:32;-3.40;99.90
6429;DHT22;3247;48.946;10.220;2023-02-28T01:37:57;-3.40;99.90
6429;DHT22;3247;48.946;10.220;2023-02-28T01:40:26;-3.30;99.90
6429;DHT22;3247;48.946;10.220;2023-02-28T01:42:51;-3.40;99.90
6429;DHT22;3247;48.946;10.220;2023-02-28T01:47:45;-3.50;99.90
6429;DHT22;3247;48.946;10.220;2023-02-28T01:50:15;-2.60;99.90
6429;DHT22;3247;48.946;10.220;2023-02-28T01:55:47;-3.50;99.90
6429;DHT22;3247;48.946;10.220;2023-02-28T01:58:15;-3.60;99.90
6429;DHT22;3247;48.946;10.220;2023-02-28T02:00:40;-2.40;99.90
6429;DHT22;3247;48.946;10.220;2023-02-28T02:03:08;-3.60;99.90
6429;DHT22;3247;48.946;10.220;2023-02-28T02:05:35;-3.60;99.90
6429;DHT22;3247;48.946;10.220;2023-02-28T02:08:04;-2.50;99.90
6429;DHT22;3247;48.946;10.220;2023-02-28T02:10:40;-3.60;99.90
6429;DHT22;3247;48.946;10.220;2023-02-28T02:18:19;-3.70;99.90
6429;DHT22;3247;48.946;10.220;2023-02-28T02:20:57;-3.60;99.90
6429;DHT22;3247;48.946;10.220;2023-02-28T02:23:33;-3.60;99.90
6429;DHT22;3247;48.946;10.220;2023-02-28T02:28:58;-3.60;99.90
6429;DHT22;3247;48.946;10.220;2023-02-28T02:31:29;-3.60;99.90
6429;DHT22;3247;48.946;10.220;2023-02-28T02:36:28;-3.60;99.90
6429;DHT22;3247;48.946;10.220;2023-02-28T02:39:04;-2.50;99.90
6429;DHT22;3247;48.946;10.220;2023-02-28T02:41:35;-3.70;99.90
6429;DHT22;3247;48.946;10.220;2023-02-28T02:44:02;-3.60;99.90
6429;DHT22;3247;48.946;10.220;2023-02-28T02:46:41;-3.60;99.90
6429;DHT22;3247;48.946;10.220;2023-02-28T02:49:12;-3.80;99.90
6429;DHT22;3247;48.946;10.220;2023-02-28T02:51:39;-3.60;99.90
6429;DHT22;3247;48.946;10.220;2023-02-28T02:54:17;-3.70;99.90
6429;DHT22;3247;48.946;10.220;2023-02-28T02:56:47;-3.70;99.90
6429;DHT22;3247;48.946;10.220;2023-02-28T02:59:15;-3.60;99.90
6429;DHT22;3247;48.946;10.220;2023-02-28T03:01:46;-3.20;99.90
6429;DHT22;3247;48.946;10.220;2023-02-28T03:04:16;-3.60;99.90
6429;DHT22;3247;48.946;10.220;2023-02-28T03:06:42;-3.60;99.90
6429;DHT22;3247;48.946;10.220;2023-02-28T03:09:07;-3.70;99.90
6429;DHT22;3247;48.946;10.220;2023-02-28T03:11:34;-3.70;99.90
6429;DHT22;3247;48.946;10.220;2023-02-28T03:16:41;-3.60;99.90
6429;DHT22;3247;48.946;10.220;2023-02-28T03:27:03;-3.60;99.90
6429;DHT22;3247;48.946;10.220;2023-02-28T03:29:35;-3.60;99.90
6429;DHT22;3247;48.946;10.220;2023-02-28T03:32:04;-3.60;99.90
6429;DHT22;3247;48.946;10.220;2023-02-28T03:34:35;-3.60;99.90
6429;DHT22;3247;48.946;10.220;2023-02-28T03:37:04;-3.50;99.90
6429;DHT22;3247;48.946;10.220;2023-02-28T03:39:34;-3.50;99.90
6429;DHT22;3247;48.946;10.220;2023-02-28T03:42:02;-3.50;99.90
6429;DHT22;3247;48.946;10.220;2023-02-28T03:44:42;-3.50;99.90
6429;DHT22;3247;48.946;10.220;2023-02-28T03:47:09;-3.50;99.90
6429;DHT22;3247;48.946;10.220;2023-02-28T03:52:42;-3.50;99.90
6429;DHT22;3247;48.946;10.220;2023-02-28T03:55:10;-3.50;99.90
6429;DHT22;3247;48.946;10.220;2023-02-28T03:57:39;-2.40;99.90
6429;DHT22;3247;48.946;10.220;2023-02-28T04:02:42;-3.40;99.90
6429;DHT22;3247;48.946;10.220;2023-02-28T04:05:08;-3.50;99.90
6429;DHT22;3247;48.946;10.220;2023-02-28T04:07:33;-3.40;99.90
6429;DHT22;3247;48.946;10.220;2023-02-28T04:09:59;-2.20;99.90
6429;DHT22;3247;48.946;10.220;2023-02-28T04:12:24;-3.40;99.90
6429;DHT22;3247;48.946;10.220;2023-02-28T04:14:50;-3.40;99.90
6429;DHT22;3247;48.946;10.220;2023-02-28T04:17:16;-2.30;99.90
6429;DHT22;3247;48.946;10.220;2023-02-28T04:19:41;-3.40;99.90
6429;DHT22;3247;48.946;10.220;2023-02-28T04:22:07;-3.30;99.90
6429;DHT22;3247;48.946;10.220;2023-02-28T04:24:33;-2.40;99.90
6429;DHT22;3247;48.946;10.220;2023-02-28T04:26:58;-2.30;99.90
6429;DHT22;3247;48.946;10.220;2023-02-28T04:29:25;-3.40;99.90
6429;DHT22;3247;48.946;10.220;2023-02-28T04:31:51;-2.40;99.90
6429;DHT22;3247;48.946;10.220;2023-02-28T04:34:18;-3.40;99.90
6429;DHT22;3247;48.946;10.220;2023-02-28T04:36:44;-3.40;99.90
6429;DHT22;3247;48.946;10.220;2023-02-28T04:39:11;-3.50;99.90
6429;DHT22;3247;48.946;10.220;2023-02-28T04:41:36;-3.50;99.90
6429;DHT22;3247;48.946;10.220;2023-02-28T04:44:02;-3.50;99.90
6429;DHT22;3247;48.946;10.220;2023-02-28T04:46:28;-3.20;99.90
6429;DHT22;3247;48.946;10.220;2023-02-28T04:48:53;-3.00;99.90
6429;DHT22;3247;48.946;10.220;2023-02-28T04:51:19;-2.70;99.90
6429;DHT22;3247;48.946;10.220;2023-02-28T04:53:46;-3.50;99.90
6429;DHT22;3247;48.946;10.220;2023-02-28T04:56:13;-2.90;99.90
6429;DHT22;3247;48.946;10.220;2023-02-28T04:58:39;-2.90;99.90
6429;DHT22;3247;48.946;10.220;2023-02-28T05:01:06;-3.50;99.90
6429;DHT22;3247;48.946;10.220;2023-02-28T05:03:40;-3.60;99.90
6429;DHT22;3247;48.946;10.220;2023-02-28T05:06:06;-3.50;99.90
6429;DHT22;3247;48.946;10.220;2023-02-28T05:08:32;-2.70;99.90
6429;DHT22;3247;48.946;10.220;2023-02-28T05:10:58;-3.10;99.90
6429;DHT22;3247;48.946;10.220;2023-02-28T05:13:26;-4.00;99.90
6429;DHT22;3247;48.946;10.220;2023-02-28T05:15:51;-2.70;99.90
6429;DHT22;3247;48.946;10.220;2023-02-28T05:18:17;-3.70;99.90
6429;DHT22;3247;48.946;10.220;2023-02-28T05:20:42;-3.70;99.90
6429;DHT22;3247;48.946;10.220;2023-02-28T05:23:09;-3.40;99.90
6429;DHT22;3247;48.946;10.220;2023-02-28T05:25:51;-3.70;99.90
6429;DHT22;3247;48.946;10.220;2023-02-28T05:28:18;-3.70;99.90
6429;DHT22;3247;48.946;10.220;2023-02-28T05:30:44;-3.20;99.90
6429;DHT22;3247;48.946;10.220;2023-02-28T05:33:10;-3.40;99.90
6429;DHT22;3247;48.946;10.220;2023-02-28T05:35:37;-3.10;99.90
6429;DHT22;3247;48.946;10.220;2023-02-28T05:38:03;-3.60;99.90
6429;DHT22;3247;48.946;10.220;2023-02-28T05:40:28;-3.80;99.90
6429;DHT22;3247;48.946;10.220;2023-02-28T05:42:54;-3.20;99.90
6429;DHT22;3247;48.946;10.220;2023-02-28T05:45:19;-3.50;99.90
6429;DHT22;3247;48.946;10.220;2023-02-28T05:47:45;-4.00;99.90
6429;DHT22;3247;48.946;10.220;2023-02-28T05:50:18;-3.30;99.90
6429;DHT22;3247;48.946;10.220;2023-02-28T05:55:47;-3.90;99.90
6429;DHT22;3247;48.946;10.220;2023-02-28T05:58:12;-2.80;99.90
6429;DHT22;3247;48.946;10.220;2023-02-28T06:00:38;-3.30;99.90
6429;DHT22;3247;48.946;10.220;2023-02-28T06:03:04;-4.00;99.90
6429;DHT22;3247;48.946;10.220;2023-02-28T06:05:31;-3.50;99.90
6429;DHT22;3247;48.946;10.220;2023-02-28T06:07:57;-4.00;99.90
6429;DHT22;3247;48.946;10.220;2023-02-28T06:10:23;-4.00;99.90
6429;DHT22;3247;48.946;10.220;2023-02-28T06:12:48;-4.20;99.90
6429;DHT22;3247;48.946;10.220;2023-02-28T06:15:15;-4.00;99.90
6429;DHT22;3247;48.946;10.220;2023-02-28T06:17:41;-4.10;99.90
6429;DHT22;3247;48.946;10.220;2023-02-28T06:20:07;-4.00;99.90
6429;DHT22;3247;48.946;10.220;2023-02-28T06:25:39;-4.00;99.90
6429;DHT22;3247;48.946;10.220;2023-02-28T06:28:04;-3.50;99.90
6429;DHT22;3247;48.946;10.220;2023-02-28T06:30:30;-3.90;99.90
6429;DHT22;3247;48.946;10.220;2023-02-28T06:32:56;-3.80;99.90
6429;DHT22;3247;48.946;10.220;2023-02-28T06:35:22;-3.50;99.90
6429;DHT22;3247;48.946;10.220;2023-02-28T06:37:47;-3.70;99.90
6429;DHT22;3247;48.946;10.220;2023-02-28T06:40:13;-3.50;99.90
6429;DHT22;3247;48.946;10.220;2023-02-28T06:42:39;-3.60;99.90
6429;DHT22;3247;48.946;10.220;2023-02-28T06:45:05;-3.30;99.90
6429;DHT22;3247;48.946;10.220;2023-02-28T06:47:34;-3.80;99.90
6429;DHT22;3247;48.946;10.220;2023-02-28T06:50:00;-3.80;99.90
6429;DHT22;3247;48.946;10.220;2023-02-28T06:55:37;-3.60;99.90
6429;DHT22;3247;48.946;10.220;2023-02-28T06:58:02;-3.50;99.90
6429;DHT22;3247;48.946;10.220;2023-02-28T07:00:28;-3.40;99.90
6429;DHT22;3247;48.946;10.220;2023-02-28T07:02:53;-3.30;99.90
6429;DHT22;3247;48.946;10.220;2023-02-28T07:05:20;-3.20;99.90
6429;DHT22;3247;48.946;10.220;2023-02-28T07:07:45;-2.80;99.90
6429;DHT22;3247;48.946;10.220;2023-02-28T07:10:12;-3.00;99.90
6429;DHT22;3247;48.946;10.220;2023-02-28T07:12:39;-3.00;99.90
6429;DHT22;3247;48.946;10.220;2023-02-28T07:15:05;-2.10;99.90
6429;DHT22;3247;48.946;10.220;2023-02-28T07:17:31;-2.90;99.90
6429;DHT22;3247;48.946;10.220;2023-02-28T07:19:57;-2.80;99.90
6429;DHT22;3247;48.946;10.220;2023-02-28T07:25:28;-2.50;99.90
6429;DHT22;3247;48.946;10.220;2023-02-28T07:27:54;-2.40;99.90
6429;DHT22;3247;48.946;10.220;2023-02-28T07:30:20;-2.20;99.90
6429;DHT22;3247;48.946;10.220;2023-02-28T07:32:47;-2.10;99.90
6429;DHT22;3247;48.946;10.220;2023-02-28T07:35:12;-2.00;99.90
6429;DHT22;3247;48.946;10.220;2023-02-28T07:37:41;-1.80;99.90
6429;DHT22;3247;48.946;10.220;2023-02-28T07:40:07;-1.60;99.90
6429;DHT22;3247;48.946;10.220;2023-02-28T07:42:34;-1.70;99.90
6429;DHT22;3247;48.946;10.220;2023-02-28T07:44:59;-1.70;99.90
6429;DHT22;3247;48.946;10.220;2023-02-28T07:47:25;-1.70;99.90
6429;DHT22;3247;48.946;10.220;2023-02-28T07:49:50;-1.60;99.90
6429;DHT22;3247;48.946;10.220;2023-02-28T07:58:23;-1.80;99.90
6429;DHT22;3247;48.946;10.220;2023-02-28T08:00:49;-1.60;99.90
6429;DHT22;3247;48.946;10.220;2023-02-28T08:03:15;-1.50;99.90
6429;DHT22;3247;48.946;10.220;2023-02-28T08:05:40;-0.50;99.90
6429;DHT22;3247;48.946;10.220;2023-02-28T08:10:43;-1.20;99.90
6429;DHT22;3247;48.946;10.220;2023-02-28T08:13:09;-0.70;99.90
6429;DHT22;3247;48.946;10.220;2023-02-28T08:15:34;-0.30;99.90
6429;DHT22;3247;48.946;10.220;2023-02-28T08:17:59;0.10;99.90
6429;DHT22;3247;48.946;10.220;2023-02-28T08:20:25;0.50;99.90
6429;DHT22;3247;48.946;10.220;2023-02-28T08:22:51;0.80;99.90
6429;DHT22;3247;48.946;10.220;2023-02-28T08:25:17;1.20;99.90
6429;DHT22;3247;48.946;10.220;2023-02-28T08:27:42;1.50;99.90
6429;DHT22;3247;48.946;10.220;2023-02-28T08:30:09;1.90;99.90
6429;DHT22;3247;48.946;10.220;2023-02-28T08:32:35;1.80;99.90
6429;DHT22;3247;48.946;10.220;2023-02-28T08:35:01;1.90;99.90
6429;DHT22;3247;48.946;10.220;2023-02-28T08:37:28;2.10;99.90
6429;DHT22;3247;48.946;10.220;2023-02-28T08:39:53;3.10;99.90
6429;DHT22;3247;48.946;10.220;2023-02-28T08:42:19;1.50;99.90
6429;DHT22;3247;48.946;10.220;2023-02-28T08:44:44;1.10;99.90
6429;DHT22;3247;48.946;10.220;2023-02-28T08:47:10;1.10;99.90
6429;DHT22;3247;48.946;10.220;2023-02-28T08:49:36;1.10;99.90
6429;DHT22;3247;48.946;10.220;2023-02-28T08:52:05;1.20;99.90
6429;DHT22;3247;48.946;10.220;2023-02-28T08:54:31;1.40;99.90
6429;DHT22;3247;48.946;10.220;2023-02-28T08:56:58;1.50;99.90
6429;DHT22;3247;48.946;10.220;2023-02-28T08:59:23;2.00;99.90
6429;DHT22;3247;48.946;10.220;2023-02-28T09:01:49;2.00;99.90
6429;DHT22;3247;48.946;10.220;2023-02-28T09:04:14;2.20;99.90
6429;DHT22;3247;48.946;10.220;2023-02-28T09:06:40;1.90;99.90
6429;DHT22;3247;48.946;10.220;2023-02-28T09:09:05;2.00;99.90
6429;DHT22;3247;48.946;10.220;2023-02-28T09:11:33;2.40;99.90
6429;DHT22;3247;48.946;10.220;2023-02-28T09:13:58;2.50;99.90
6429;DHT22;3247;48.946;10.220;2023-02-28T09:16:26;2.70;99.90
6429;DHT22;3247;48.946;10.220;2023-02-28T09:18:51;2.80;99.90
6429;DHT22;3247;48.946;10.220;2023-02-28T09:21:17;2.90;99.90
6429;DHT22;3247;48.946;10.220;2023-02-28T09:23:44;3.10;99.90
6429;DHT22;3247;48.946;10.220;2023-02-28T09:26:28;3.20;99.90
6429;DHT22;3247;48.946;10.220;2023-02-28T09:28:54;1.30;99.90
6429;DHT22;3247;48.946;10.220;2023-02-28T09:31:21;2.10;99.90
6429;DHT22;3247;48.946;10.220;2023-02-28T09:33:50;1.90;99.90
6429;DHT22;3247;48.946;10.220;2023-02-28T09:36:17;1.70;99.90
6429;DHT22;3247;48.946;10.220;2023-02-28T09:38:42;1.50;99.90
6429;DHT22;3247;48.946;10.220;2023-02-28T09:43:40;1.20;99.90
6429;DHT22;3247;48.946;10.220;2023-02-28T09:46:11;1.20;99.90
6429;DHT22;3247;48.946;10.220;2023-02-28T09:48:39;1.10;99.90
6429;DHT22;3247;48.946;10.220;2023-02-28T09:53:54;1.20;99.90
6429;DHT22;3247;48.946;10.220;2023-02-28T09:56:42;1.10;99.90
6429;DHT22;3247;48.946;10.220;2023-02-28T10:04:05;1.10;99.90
6429;DHT22;3247;48.946;10.220;2023-02-28T10:06:36;1.20;99.90
6429;DHT22;3247;48.946;10.220;2023-02-28T10:09:15;1.30;99.90
6429;DHT22;3247;48.946;10.220;2023-02-28T10:11:42;1.30;99.90
6429;DHT22;3247;48.946;10.220;2023-02-28T10:14:13;1.10;99.90
6429;DHT22;3247;48.946;10.220;2023-02-28T10:16:45;1.10;99.90
6429;DHT22;3247;48.946;10.220;2023-02-28T10:21:49;1.40;99.90
6429;DHT22;3247;48.946;10.220;2023-02-28T10:26:43;0.70;99.90
6429;DHT22;3247;48.946;10.220;2023-02-28T10:29:10;1.40;99.90
6429;DHT22;3247;48.946;10.220;2023-02-28T10:31:35;1.40;99.90
6429;DHT22;3247;48.946;10.220;2023-02-28T10:34:01;1.50;99.90
6429;DHT22;3247;48.946;10.220;2023-02-28T10:36:28;1.50;99.90
6429;DHT22;3247;48.946;10.220;2023-02-28T10:38:54;1.40;99.90
6429;DHT22;3247;48.946;10.220;2023-02-28T10:43:53;1.50;99.90
6429;DHT22;3247;48.946;10.220;2023-02-28T10:46:22;1.80;99.90
6429;DHT22;3247;48.946;10.220;2023-02-28T10:49:01;1.80;99.90
6429;DHT22;3247;48.946;10.220;2023-02-28T10:51:27;1.80;99.90
6429;DHT22;3247;48.946;10.220;2023-02-28T10:53:59;1.80;99.90
6429;DHT22;3247;48.946;10.220;2023-02-28T10:56:24;1.90;99.90
6429;DHT22;3247;48.946;10.220;2023-02-28T10:59:03;1.90;99.90
6429;DHT22;3247;48.946;10.220;2023-02-28T11:01:47;2.00;99.90
6429;DHT22;3247;48.946;10.220;2023-02-28T11:07:05;2.20;99.90
6429;DHT22;3247;48.946;10.220;2023-02-28T11:09:38;2.20;99.90
6429;DHT22;3247;48.946;10.220;2023-02-28T11:12:04;2.10;99.90
6429;DHT22;3247;48.946;10.220;2023-02-28T11:14:32;1.90;99.90
6429;DHT22;3247;48.946;10.220;2023-02-28T11:17:03;2.10;99.90
6429;DHT22;3247;48.946;10.220;2023-02-28T11:19:39;2.10;99.90
6429;DHT22;3247;48.946;10.220;2023-02-28T11:22:08;2.10;99.90
6429;DHT22;3247;48.946;10.220;2023-02-28T11:24:40;2.20;99.90
6429;DHT22;3247;48.946;10.220;2023-02-28T11:27:13;3.60;99.90
6429;DHT22;3247;48.946;10.220;2023-02-28T11:29:49;2.20;99.90
6429;DHT22;3247;48.946;10.220;2023-02-28T11:32:19;2.20;99.90
6429;DHT22;3247;48.946;10.220;2023-02-28T11:34:45;2.30;99.90
6429;DHT22;3247;48.946;10.220;2023-02-28T11:37:18;2.10;99.90
6429;DHT22;3247;48.946;10.220;2023-02-28T11:39:44;2.10;99.90
6429;DHT22;3247;48.946;10.220;2023-02-28T11:42:17;2.30;99.90
6429;DHT22;3247;48.946;10.220;2023-02-28T11:47:24;2.50;99.90
6429;DHT22;3247;48.946;10.220;2023-02-28T11:52:42;3.00;99.90
6429;DHT22;3247;48.946;10.220;2023-02-28T11:55:14;3.00;99.90
6429;DHT22;3247;48.946;10.220;2023-02-28T11:58:00;2.70;99.90
6429;DHT22;3247;48.946;10.220;2023-02-28T12:05:45;3.00;99.90
6429;DHT22;3247;48.946;10.220;2023-02-28T12:11:06;2.90;99.90
6429;DHT22;3247;48.946;10.220;2023-02-28T12:16:23;2.80;99.90
6429;DHT22;3247;48.946;10.220;2023-02-28T12:21:41;2.80;99.90
6429;DHT22;3247;48.946;10.220;2023-02-28T12:26:53;2.80;99.90
6429;DHT22;3247;48.946;10.220;2023-02-28T12:29:27;2.80;99.90
6429;DHT22;3247;48.946;10.220;2023-02-28T12:32:12;3.00;99.90
6429;DHT22;3247;48.946;10.220;2023-02-28T12:34:39;3.10;99.90
6429;DHT22;3247;48.946;10.220;2023-02-28T12:37:14;3.00;99.90
6429;DHT22;3247;48.946;10.220;2023-02-28T12:39:42;2.90;99.90
6429;DHT22;3247;48.946;10.220;2023-02-28T12:42:19;3.00;99.90
6429;DHT22;3247;48.946;10.220;2023-02-28T12:44:52;3.20;99.90
6429;DHT22;3247;48.946;10.220;2023-02-28T12:47:19;3.30;99.90
6429;DHT22;3247;48.946;10.220;2023-02-28T12:52:13;3.50;99.90
6429;DHT22;3247;48.946;10.220;2023-02-28T12:57:15;3.30;99.90
6429;DHT22;3247;48.946;10.220;2023-02-28T12:59:54;3.30;99.90
6429;DHT22;3247;48.946;10.220;2023-02-28T13:02:32;3.30;99.90
6429;DHT22;3247;48.946;10.220;2023-02-28T13:10:41;3.40;99.90
6429;DHT22;3247;48.946;10.220;2023-02-28T13:13:12;3.50;99.90
6429;DHT22;3247;48.946;10.220;2023-02-28T13:15:39;3.70;99.90
6429;DHT22;3247;48.946;10.220;2023-02-28T13:18:20;3.70;99.90
6429;DHT22;3247;48.946;10.220;2023-02-28T13:20:50;3.70;99.90
6429;DHT22;3247;48.946;10.220;2023-02-28T13:26:21;3.40;99.90
6429;DHT22;3247;48.946;10.220;2023-02-28T13:31:24;3.30;99.90
6429;DHT22;3247;48.946;10.220;2023-02-28T13:44:36;3.60;99.90
6429;DHT22;3247;48.946;10.220;2023-02-28T13:49:18;3.70;99.90
6429;DHT22;3247;48.946;10.220;2023-02-28T13:55:06;3.60;99.90
6429;DHT22;3247;48.946;10.220;2023-02-28T13:57:41;3.60;99.90
6429;DHT22;3247;48.946;10.220;2023-02-28T14:00:31;3.60;99.90
6429;DHT22;3247;48.946;10.220;2023-02-28T14:05:44;3.60;99.90
6429;DHT22;3247;48.946;10.220;2023-02-28T14:08:16;4.40;99.90
6429;DHT22;3247;48.946;10.220;2023-02-28T14:10:50;3.60;99.90
6429;DHT22;3247;48.946;10.220;2023-02-28T14:16:00;3.60;99.90
6429;DHT22;3247;48.946;10.220;2023-02-28T14:18:31;3.50;99.90
6429;DHT22;3247;48.946;10.220;2023-02-28T14:23:44;3.60;99.90
6429;DHT22;3247;48.946;10.220;2023-02-28T14:26:13;3.60;99.90
6429;DHT22;3247;48.946;10.220;2023-02-28T14:28:45;3.60;99.90
6429;DHT22;3247;48.946;10.220;2023-02-28T14:31:13;3.50;99.90
6429;DHT22;3247;48.946;10.220;2023-02-28T14:33:57;3.30;99.90
6429;DHT22;3247;48.946;10.220;2023-02-28T14:36:26;4.60;99.90
6429;DHT22;3247;48.946;10.220;2023-02-28T14:38:53;3.20;99.90
6429;DHT22;3247;48.946;10.220;2023-02-28T14:41:26;3.10;99.90
6429;DHT22;3247;48.946;10.220;2023-02-28T14:43:57;3.10;99.90
6429;DHT22;3247;48.946;10.220;2023-02-28T14:46:23;3.10;99.90
6429;DHT22;3247;48.946;10.220;2023-02-28T14:48:50;4.10;99.90
6429;DHT22;3247;48.946;10.220;2023-02-28T14:54:24;2.90;99.90
6429;DHT22;3247;48.946;10.220;2023-02-28T14:56:50;3.00;99.90
6429;DHT22;3247;48.946;10.220;2023-02-28T14:59:22;3.00;99.90
6429;DHT22;3247;48.946;10.220;2023-02-28T15:01:48;2.90;99.90
6429;DHT22;3247;48.946;10.220;2023-02-28T15:04:18;2.90;99.90
6429;DHT22;3247;48.946;10.220;2023-02-28T15:06:46;3.10;99.90
6429;DHT22;3247;48.946;10.220;2023-02-28T15:09:16;1.50;99.90
6429;DHT22;3247;48.946;10.220;2023-02-28T15:11:41;3.00;99.90
6429;DHT22;3247;48.946;10.220;2023-02-28T15:14:13;3.00;99.90
6429;DHT22;3247;48.946;10.220;2023-02-28T15:16:41;3.00;99.90
6429;DHT22;3247;48.946;10.220;2023-02-28T15:19:08;3.00;99.90
6429;DHT22;3247;48.946;10.220;2023-02-28T15:21:47;3.10;99.90
6429;DHT22;3247;48.946;10.220;2023-02-28T15:24:15;3.00;99.90
6429;DHT22;3247;48.946;10.220;2023-02-28T15:26:51;3.00;99.90
6429;DHT22;3247;48.946;10.220;2023-02-28T15:29:22;3.00;99.90
6429;DHT22;3247;48.946;10.220;2023-02-28T15:31:49;3.10;99.90
6429;DHT22;3247;48.946;10.220;2023-02-28T15:34:36;3.20;99.90
6429;DHT22;3247;48.946;10.220;2023-02-28T15:37:00;3.70;99.90
6429;DHT22;3247;48.946;10.220;2023-02-28T15:39:26;3.10;99.90
6429;DHT22;3247;48.946;10.220;2023-02-28T15:42:09;3.10;99.90
6429;DHT22;3247;48.946;10.220;2023-02-28T15:44:34;3.00;99.90
6429;DHT22;3247;48.946;10.220;2023-02-28T15:47:01;2.90;99.90
6429;DHT22;3247;48.946;10.220;2023-02-28T15:49:28;2.80;99.90
6429;DHT22;3247;48.946;10.220;2023-02-28T15:52:03;2.80;99.90
6429;DHT22;3247;48.946;10.220;2023-02-28T15:54:30;2.80;99.90
6429;DHT22;3247;48.946;10.220;2023-02-28T15:56:57;2.80;99.90
6429;DHT22;3247;48.946;10.220;2023-02-28T15:59:25;2.70;99.90
6429;DHT22;3247;48.946;10.220;2023-02-28T16:02:03;2.70;99.90
6429;DHT22;3247;48.946;10.220;2023-02-28T16:04:29;2.60;99.90
6429;DHT22;3247;48.946;10.220;2023-02-28T16:07:05;2.60;99.90
6429;DHT22;3247;48.946;10.220;2023-02-28T16:09:31;2.50;99.90
6429;DHT22;3247;48.946;10.220;2023-02-28T16:12:00;2.50;99.90
6429;DHT22;3247;48.946;10.220;2023-02-28T16:14:27;2.30;99.90
6429;DHT22;3247;48.946;10.220;2023-02-28T16:16:56;2.30;99.90
6429;DHT22;3247;48.946;10.220;2023-02-28T16:19:22;2.30;99.90
6429;DHT22;3247;48.946;10.220;2023-02-28T16:21:57;2.20;99.90
6429;DHT22;3247;48.946;10.220;2023-02-28T16:24:23;2.20;99.90
6429;DHT22;3247;48.946;10.220;2023-02-28T16:26:48;2.10;99.90
6429;DHT22;3247;48.946;10.220;2023-02-28T16:29:27;2.00;99.90
6429;DHT22;3247;48.946;10.220;2023-02-28T16:31:53;1.90;99.90
6429;DHT22;3247;48.946;10.220;2023-02-28T16:34:19;1.80;99.90
6429;DHT22;3247;48.946;10.220;2023-02-28T16:36:48;2.20;99.90
6429;DHT22;3247;48.946;10.220;2023-02-28T16:39:13;1.70;99.90
6429;DHT22;3247;48.946;10.220;2023-02-28T16:41:40;1.60;99.90
6429;DHT22;3247;48.946;10.220;2023-02-28T16:44:09;1.50;99.90
6429;DHT22;3247;48.946;10.220;2023-02-28T16:46:35;1.50;99.90
6429;DHT22;3247;48.946;10.220;2023-02-28T16:49:01;1.40;99.90
6429;DHT22;3247;48.946;10.220;2023-02-28T16:51:26;1.30;99.90
6429;DHT22;3247;48.946;10.220;2023-02-28T16:53:52;1.20;99.90
6429;DHT22;3247;48.946;10.220;2023-02-28T16:56:19;1.10;99.90
6429;DHT22;3247;48.946;10.220;2023-02-28T16:58:45;1.10;99.90
6429;DHT22;3247;48.946;10.220;2023-02-28T17:01:11;1.00;99.90
6429;DHT22;3247;48.946;10.220;2023-02-28T17:03:36;0.90;99.90
6429;DHT22;3247;48.946;10.220;2023-02-28T17:06:03;0.70;99.90
6429;DHT22;3247;48.946;10.220;2023-02-28T17:08:29;0.60;99.90
6429;DHT22;3247;48.946;10.220;2023-02-28T17:10:55;0.60;99.90
6429;DHT22;3247;48.946;10.220;2023-02-28T17:13:20;0.50;99.90
6429;DHT22;3247;48.946;10.220;2023-02-28T17:15:46;0.50;99.90
6429;DHT22;3247;48.946;10.220;2023-02-28T17:18:15;0.40;99.90
6429;DHT22;3247;48.946;10.220;2023-02-28T17:23:29;0.20;99.90
6429;DHT22;3247;48.946;10.220;2023-02-28T17:25:54;0.20;99.90
6429;DHT22;3247;48.946;10.220;2023-02-28T17:28:20;0.20;99.90
6429;DHT22;3247;48.946;10.220;2023-02-28T17:30:46;0.20;99.90
6429;DHT22;3247;48.946;10.220;2023-02-28T17:33:12;0.20;99.90
6429;DHT22;3247;48.946;10.220;2023-02-28T17:35:38;0.00;99.90
6429;DHT22;3247;48.946;10.220;2023-02-28T17:38:03;-0.10;99.90
6429;DHT22;3247;48.946;10.220;2023-02-28T17:40:29;-0.20;99.90
6429;DHT22;3247;48.946;10.220;2023-02-28T17:42:54;-0.20;99.90
6429;DHT22;3247;48.946;10.220;2023-02-28T17:45:22;-0.20;99.90
6429;DHT22;3247;48.946;10.220;2023-02-28T17:47:50;-0.30;99.90
6429;DHT22;3247;48.946;10.220;2023-02-28T17:50:17;-1.30;99.90
6429;DHT22;3247;48.946;10.220;2023-02-28T17:53:01;-0.40;99.90
6429;DHT22;3247;48.946;10.220;2023-02-28T17:55:27;0.80;99.90
6429;DHT22;3247;48.946;10.220;2023-02-28T17:57:52;-0.30;99.90
6429;DHT22;3247;48.946;10.220;2023-02-28T18:00:18;-0.30;99.90
6429;DHT22;3247;48.946;10.220;2023-02-28T18:02:46;-0.40;99.90
6429;DHT22;3247;48.946;10.220;2023-02-28T18:05:11;-0.40;99.90
6429;DHT22;3247;48.946;10.220;2023-02-28T18:07:37;-0.50;99.90
6429;DHT22;3247;48.946;10.220;2023-02-28T18:10:04;-0.40;99.90
6429;DHT22;3247;48.946;10.220;2023-02-28T18:12:30;-0.50;99.90
6429;DHT22;3247;48.946;10.220;2023-02-28T18:14:56;-0.50;99.90
6429;DHT22;3247;48.946;10.220;2023-02-28T18:17:21;-0.50;99.90
6429;DHT22;3247;48.946;10.220;2023-02-28T18:19:47;-0.60;99.90
6429;DHT22;3247;48.946;10.220;2023-02-28T18:25:15;-0.60;99.90
6429;DHT22;3247;48.946;10.220;2023-02-28T18:27:42;-0.60;99.90
6429;DHT22;3247;48.946;10.220;2023-02-28T18:30:19;-0.70;99.90